• Join FlightAware (Why Join?)
  • Login
  • US Flag 
12:39PM EDT


 

Airport Tracker/Info


-or-


 

Live Flight TrackerFlight Track Log ✈ FDX1570 ✈ 07-May-2013 ✈ KMEM - KALB

Flight Track Log - Related Links

Times and Time Zones

All times are in EDT time to prevent confusion due to time zone crossing. See the FDX1570 flight status page for this flight to view local times or setup timezone preferences in your user account.

Time Position Orientation Groundspeed Altitude Reporting Facility
EDT Latitude Longitude Course Direction KTS MPH feet Rate Location/Type
04:25AM 35.0167 -89.9667 168° South 181 208 1,000  Level KMEM
04:26AM 34.9500 -89.9500 168° South 244 281 3,000 2,280 Climbing KMEM
04:27AM 34.9167 -89.8833 121° Southeast 277 319 6,100 2,880 Climbing KMEM
04:28AM 34.9500 -89.8000 64° Northeast 270 311 9,300 2,520 Climbing KMEM
04:29AM 34.9992 -89.6981 59° Northeast 305 351 11,500 1,860 Climbing Memphis Center
04:30AM 35.0425 -89.5936 63° Northeast 326 375 13,100 2,100 Climbing Memphis Center
04:31AM 35.0919 -89.4817 62° Northeast 352 405 15,700 2,400 Climbing Memphis Center
04:32AM 35.1431 -89.3642 62° Northeast 371 427 17,900 2,100 Climbing Memphis Center
04:33AM 35.1942 -89.2442 62° Northeast 391 450 20,000 1,680 Climbing Memphis Center
04:34AM 35.2578 -89.1289 56° Northeast 396 456 21,300 1,260 Climbing Memphis Center
04:35AM 35.3294 -89.0108 53° Northeast 419 482 22,600 1,560 Climbing Memphis Center
04:36AM 35.3931 -88.8978 55° Northeast 439 505 24,500 1,740 Climbing Memphis Center
04:42AM 35.8000 -88.2290 55° Northeast 445 512 33,800 1,620 Climbing FlightAware
04:42AM 35.8490 -88.1490 53° Northeast 448 516 34,600 1,080 Climbing FlightAware
04:43AM 35.8980 -88.0670 54° Northeast 448 516 35,300 960 Climbing FlightAware
04:44AM 35.9530 -87.9730 54° Northeast 448 516 36,000 1,020 Climbing FlightAware
04:44AM 36.0020 -87.8910 54° Northeast 446 513 36,800 720 Climbing FlightAware
04:45AM 36.0530 -87.8040 54° Northeast 449 517 37,000 120 Climbing FlightAware
04:46AM 36.1070 -87.7120 54° Northeast 455 524 37,000  Level FlightAware
04:46AM 36.1560 -87.6300 53° Northeast 455 524 37,000  Level FlightAware
04:47AM 36.2130 -87.5310 54° Northeast 452 520 37,000  Level FlightAware
04:48AM 36.2610 -87.4490 54° Northeast 452 520 37,000  Level FlightAware
04:49AM 36.3150 -87.3550 54° Northeast 445 512 37,000  Level FlightAware
04:49AM 36.3630 -87.2750 53° Northeast 439 505 37,000  Level FlightAware
04:50AM 36.4110 -87.1910 55° Northeast 439 505 37,000  Level FlightAware
04:51AM 36.4650 -87.0970 54° Northeast 440 506 37,000  Level FlightAware
04:51AM 36.5120 -87.0170 54° Northeast 439 505 37,000  Level FlightAware
04:52AM 36.5640 -86.9240 55° Northeast 438 504 37,000  Level FlightAware
04:53AM 36.6120 -86.8420 54° Northeast 438 504 37,000  Level FlightAware
04:54AM 36.6647 -86.7490 55° Northeast 443 510 37,000  Level FlightAware ADS-B
04:54AM 36.7032 -86.6825 54° Northeast 443 510 37,000  Level FlightAware ADS-B
04:55AM 36.7391 -86.6200 54° Northeast 443 510 37,000  Level FlightAware ADS-B
04:55AM 36.7749 -86.5576 54° Northeast 443 510 37,000  Level FlightAware ADS-B
04:56AM 36.8112 -86.4927 55° Northeast 443 510 37,000  Level FlightAware ADS-B
04:56AM 36.8475 -86.4279 55° Northeast 444 511 37,000  Level FlightAware ADS-B
04:57AM 36.8842 -86.3630 55° Northeast 443 510 37,000  Level FlightAware ADS-B
04:57AM 36.9209 -86.2982 55° Northeast 444 511 37,000  Level FlightAware ADS-B
04:58AM 36.9595 -86.2291 55° Northeast 442 509 37,000  Level FlightAware ADS-B
04:58AM 36.9952 -86.1663 55° Northeast 442 509 37,000  Level FlightAware ADS-B
04:59AM 37.0300 -86.1040 55° Northeast 442 509 37,000  Level FlightAware
04:59AM 37.0824 -86.0109 55° Northeast 442 509 37,000  Level FlightAware ADS-B
05:00AM 37.1260 -85.9330 55° Northeast 445 512 37,000  Level FlightAware
05:01AM 37.1645 -85.8631 55° Northeast 445 512 37,000  Level FlightAware ADS-B
05:02AM 37.2490 -85.7120 55° Northeast 447 514 37,000  Level FlightAware
05:02AM 37.2953 -85.6287 55° Northeast 445 512 37,000  Level FlightAware ADS-B
05:03AM 37.3398 -85.5474 55° Northeast 447 514 37,000  Level FlightAware ADS-B
05:04AM 37.3891 -85.4578 55° Northeast 447 514 37,000  Level FlightAware ADS-B
05:04AM 37.4243 -85.3940 55° Northeast 445 512 37,000  Level FlightAware ADS-B
05:05AM 37.4598 -85.3279 56° Northeast 445 512 37,000  Level FlightAware ADS-B
05:05AM 37.4953 -85.2637 55° Northeast 446 513 37,000  Level FlightAware ADS-B
05:06AM 37.5322 -85.1953 56° Northeast 446 513 37,000  Level FlightAware ADS-B
05:06AM 37.5686 -85.1289 55° Northeast 447 514 37,000  Level FlightAware ADS-B
05:07AM 37.6047 -85.0622 56° Northeast 449 517 37,000  Level FlightAware ADS-B
05:07AM 37.6405 -84.9972 55° Northeast 450 518 37,000  Level FlightAware ADS-B
05:08AM 37.6816 -84.9213 56° Northeast 450 518 37,000  Level FlightAware ADS-B
05:09AM 37.7290 -84.8340 56° Northeast 450 518 37,000  Level FlightAware
05:09AM 37.7900 -84.7210 56° Northeast 451 519 37,000  Level FlightAware
05:10AM 37.8288 -84.6469 56° Northeast 454 522 37,000  Level FlightAware ADS-B
05:11AM 37.8685 -84.5738 55° Northeast 458 527 37,000  Level FlightAware ADS-B
05:11AM 37.9218 -84.4740 56° Northeast 457 526 37,000  Level FlightAware ADS-B
05:12AM 37.9910 -84.3440 56° Northeast 451 519 37,000  Level FlightAware
05:13AM 38.0530 -84.2280 56° Northeast 450 518 37,000  Level FlightAware
05:14AM 38.0930 -84.1510 57° Northeast 449 517 37,000  Level FlightAware
05:15AM 38.1390 -84.0650 56° Northeast 449 517 37,000  Level FlightAware
05:15AM 38.1910 -83.9650 56° Northeast 447 514 37,000  Level FlightAware
05:16AM 38.2370 -83.8770 56° Northeast 447 514 37,000  Level FlightAware
05:17AM 38.2770 -83.8030 55° Northeast 447 514 37,000  Level FlightAware
05:17AM 38.3380 -83.6850 57° Northeast 445 512 37,000  Level FlightAware
05:18AM 38.3850 -83.5930 57° Northeast 446 513 37,000  Level FlightAware
05:19AM 38.4310 -83.5060 56° Northeast 446 513 37,000  Level FlightAware
05:19AM 38.4710 -83.4310 56° Northeast 446 513 37,000  Level FlightAware
05:20AM 38.5100 -83.3570 56° Northeast 446 513 37,000  Level FlightAware
05:21AM 38.5490 -83.2830 56° Northeast 446 513 37,000  Level FlightAware
05:22AM 38.5980 -83.1900 56° Northeast 446 513 37,000  Level FlightAware
05:22AM 38.6760 -83.0300 58° Northeast 445 512 37,000  Level FlightAware
05:23AM 38.7220 -82.9400 57° Northeast 443 510 37,000  Level FlightAware
05:24AM 38.7690 -82.8450 58° Northeast 442 509 37,000  Level FlightAware
05:24AM 38.8170 -82.7510 57° Northeast 442 509 37,000  Level FlightAware
05:25AM 38.8650 -82.6560 57° Northeast 442 509 37,000  Level FlightAware
05:26AM 38.9110 -82.5660 57° Northeast 442 509 37,000  Level FlightAware
05:26AM 38.9550 -82.4770 58° Northeast 442 509 37,000  Level FlightAware
05:27AM 39.0030 -82.3800 57° Northeast 443 510 37,000  Level FlightAware
05:28AM 39.0480 -82.2920 57° Northeast 443 510 37,000  Level FlightAware
05:29AM 39.0980 -82.1920 57° Northeast 442 509 37,000  Level FlightAware
05:29AM 39.1430 -82.1010 57° Northeast 441 507 37,000  Level FlightAware
05:30AM 39.1870 -82.0120 57° Northeast 440 506 37,000  Level FlightAware
05:31AM 39.2370 -81.9100 58° Northeast 441 507 37,000  Level FlightAware
05:31AM 39.2790 -81.8260 57° Northeast 442 509 37,000  Level FlightAware
05:32AM 39.3300 -81.7210 58° Northeast 441 507 37,000  Level FlightAware
05:33AM 39.3730 -81.6340 57° Northeast 441 507 37,000  Level FlightAware
05:34AM 39.4230 -81.5310 58° Northeast 443 510 37,000  Level FlightAware
05:34AM 39.4640 -81.4460 58° Northeast 444 511 37,000  Level FlightAware
05:35AM 39.5060 -81.3600 58° Northeast 447 514 37,000  Level FlightAware
05:35AM 39.5410 -81.2870 58° Northeast 449 517 37,000  Level FlightAware
05:36AM 39.5860 -81.1960 57° Northeast 448 516 37,000  Level FlightAware
05:37AM 39.6360 -81.0890 59° Northeast 447 514 37,000  Level FlightAware
05:37AM 39.6790 -81.0020 57° Northeast 447 514 37,000  Level FlightAware
05:38AM 39.7060 -80.9450 58° Northeast 446 513 37,000  Level FlightAware
05:39AM 39.7490 -80.8540 58° Northeast 446 513 37,000  Level FlightAware
05:39AM 39.7930 -80.7610 58° Northeast 447 514 37,000  Level FlightAware
05:40AM 39.8430 -80.6580 58° Northeast 447 514 37,000  Level FlightAware
05:41AM 39.8870 -80.5630 59° Northeast 447 514 37,000  Level FlightAware
05:41AM 39.9290 -80.4740 58° Northeast 447 514 37,000  Level FlightAware
05:42AM 39.9770 -80.3730 58° Northeast 448 516 37,000  Level FlightAware
05:43AM 40.0190 -80.2830 59° Northeast 448 516 37,000  Level FlightAware
05:44AM 40.0740 -80.1650 59° Northeast 449 517 37,000  Level FlightAware
05:44AM 40.1280 -80.0490 59° Northeast 447 514 37,000  Level FlightAware
05:45AM 40.1700 -79.9570 59° Northeast 447 514 37,000  Level FlightAware
05:46AM 40.2140 -79.8620 59° Northeast 445 512 37,000  Level FlightAware
05:46AM 40.2630 -79.7560 59° Northeast 444 511 37,000  Level FlightAware
05:47AM 40.3050 -79.6640 59° Northeast 444 511 37,000  Level FlightAware
05:48AM 40.3510 -79.5650 59° Northeast 444 511 37,000  Level FlightAware
05:49AM 40.3940 -79.4720 59° Northeast 445 512 37,000  Level FlightAware
05:49AM 40.4410 -79.3680 59° Northeast 445 512 37,000  Level FlightAware
05:50AM 40.4810 -79.2790 59° Northeast 446 513 37,000  Level FlightAware
05:51AM 40.5290 -79.1720 59° Northeast 448 516 37,000  Level FlightAware
05:51AM 40.5710 -79.0810 59° Northeast 448 516 37,000  Level FlightAware
05:52AM 40.6040 -79.0060 60° Northeast 446 513 37,000  Level FlightAware
05:54AM 40.7140 -78.7610 59° Northeast 448 516 37,000  Level FlightAware
05:54AM 40.7550 -78.6700 59° Northeast 446 513 37,000  Level FlightAware
05:55AM 40.8103 -78.5430 60° Northeast 445 512 37,000  Level FlightAware ADS-B
05:56AM 40.8420 -78.4700 60° Northeast 444 511 37,000  Level FlightAware
05:56AM 40.8760 -78.3960 59° Northeast 443 510 37,000  Level FlightAware
05:57AM 40.9320 -78.2690 60° Northeast 444 511 37,000  Level FlightAware
05:58AM 40.9780 -78.1630 60° Northeast 446 513 37,000  Level FlightAware
05:59AM 41.0190 -78.0680 60° Northeast 448 516 37,000  Level FlightAware
05:59AM 41.0590 -77.9750 60° Northeast 449 517 37,000 -300 Level FlightAware
06:00AM 41.1050 -77.8700 60° Northeast 448 516 36,600 -1,200 Descending FlightAware
06:01AM 41.1569 -77.7492 60° Northeast 457 526 35,400 -1,620 Descending FlightAware ADS-B
06:01AM 41.1906 -77.6708 60° Northeast 458 527 34,700 -1,140 Descending FlightAware ADS-B
06:02AM 41.2408 -77.5528 60° Northeast 462 532 33,900 -960 Descending FlightAware ADS-B
06:03AM 41.2800 -77.4610 60° Northeast 465 535 33,200 -1,260 Descending FlightAware
06:03AM 41.3092 -77.3939 60° Northeast 467 537 32,600 -1,440 Descending FlightAware ADS-B
06:04AM 41.3523 -77.2912 61° Northeast 469 540 31,800 -1,200 Descending FlightAware ADS-B
06:04AM 41.3860 -77.2132 60° Northeast 469 540 31,200 -960 Descending FlightAware ADS-B
06:05AM 41.4130 -77.1480 61° Northeast 469 540 30,800 -1,140 Descending FlightAware
06:05AM 41.4314 -77.1049 60° Northeast 469 540 30,400 -1,500 Descending FlightAware ADS-B
06:06AM 41.4600 -77.0360 61° Northeast 473 544 29,700 -1,500 Descending FlightAware
06:06AM 41.4882 -76.9700 60° Northeast 476 548 29,100 -840 Descending FlightAware ADS-B
06:06AM 41.5257 -76.8798 61° Northeast 482 555 29,000 -120 Descending FlightAware ADS-B
06:07AM 41.5510 -76.8230 59° Northeast 481 554 29,000  Level FlightAware
06:08AM 41.5970 -76.7090 62° Northeast 479 551 29,000 -180 Level FlightAware
06:08AM 41.6116 -76.6782 58° Northeast 482 555 28,900 -900 Descending FlightAware ADS-B
06:08AM 41.6460 -76.6100 56° Northeast 479 551 28,400 -1,260 Descending FlightAware
06:09AM 41.6909 -76.5362 51° Northeast 480 552 27,700 -1,560 Descending FlightAware ADS-B
06:09AM 41.7347 -76.4641 51° Northeast 484 557 27,000 -1,440 Descending FlightAware ADS-B
06:10AM 41.7809 -76.3870 51° Northeast 484 557 26,200 -1,380 Descending FlightAware ADS-B
06:11AM 41.9160 -76.1650 51° Northeast 482 555 24,100 -1,020 Descending FlightAware
06:12AM 41.9590 -76.0930 51° Northeast 449 517 24,000 -60 Descending FlightAware
06:16AM 42.2480 -75.5770 53° Northeast 457 526 24,000  Level FlightAware
06:17AM 42.2780 -75.4770 68° East 457 526 24,000 -180 Level FlightAware
06:17AM 42.3160 -75.3490 68° East 458 527 23,800 -1,020 Descending FlightAware
06:18AM 42.3400 -75.2640 69° East 450 518 22,700 -840 Descending FlightAware
06:19AM 42.3720 -75.1560 68° East 450 518 22,700  Level FlightAware
06:19AM 42.3990 -75.0670 68° East 450 518 22,700  Level FlightAware
06:20AM 42.4320 -74.9560 68° East 450 518 22,700  Level FlightAware
06:21AM 42.4520 -74.8890 68° East 450 518 22,700  Level FlightAware
06:21AM 42.4850 -74.7780 68° East 450 518 22,700 -6,480 Level FlightAware
06:22AM 42.5189 -74.6289 68° East 394 453 11,600 -6,360 Descending Boston Center
06:23AM 42.5569 -74.4950 69° East 352 405 10,800 -840 Descending Boston Center
06:24AM 42.5836 -74.3972 70° East 310 357 10,000 -960 Descending Boston Center
06:25AM 42.6372 -74.3083 51° Northeast 275 316 8,900 -1,020 Descending Boston Center
06:26AM 42.6800 -74.2336 52° Northeast 275 316 8,000 -1,200 Descending Boston Center
06:27AM 42.7314 -74.1503 50° Northeast 270 311 6,600 -1,200 Descending Boston Center
06:28AM 42.7678 -74.0889 51° Northeast 265 305 5,700 -1,200 Descending Boston Center
06:29AM 42.8169 -74.0053 51° Northeast 260 299 4,200 -1,200 Descending Boston Center
06:30AM 42.8639 -73.9244 52° Northeast 260 299 3,300 -780 Descending Boston Center
06:31AM 42.8978 -73.8658 52° Northeast 213 245 2,700 -660 Descending Boston Center
06:32AM 42.8714 -73.8169 126° Southeast 136 157 2,000 -420 Descending Boston Center
06:33AM 42.8425 -73.7992 156° South 136 157 1,900 -540 Descending Boston Center
06:34AM 42.7903 -73.8094 188° South 117 135 900 -900 Descending Boston Center
06:36AM 42.7491 -73.8020 168° South  Level Estimated